Time;durP1;ratioP1;P1;durP2;ratioP2;P2;SDS_P1;SDS_P2;PMS_P1;PMS_P2;Temp;Humidity;BMP_temperature;BMP_pressure;BME280_temperature;BME280_humidity;BME280_pressure;Samples;Min_cycle;Max_cycle;Signal;HPM_P1;HPM_P2
2022/06/03 00:02:24;;;;;;;5.73;5.53;;;;;;;;;;5096508;28;20401;-65
2022/06/03 00:05:06;;;;;;;6.83;6.33;;;;;;;;;;5096329;28;20404;-64
2022/06/03 00:07:50;;;;;;;7.40;6.67;;;;;;;;;;5096303;28;20410;-65
2022/06/03 00:10:32;;;;;;;6.53;6.03;;;;;;;;;;5096121;28;20522;-63
2022/06/03 00:13:16;;;;;;;5.80;5.60;;;;;;;;;;5096153;28;20941;-65
2022/06/03 00:15:50;;;;;;;6.27;6.07;;;;;;;;;;5095641;28;20414;-65
2022/06/03 00:18:26;;;;;;;5.83;5.47;;;;;;;;;;5096190;28;20471;-64
2022/06/03 00:21:13;;;;;;;5.80;5.33;;;;;;;;;;5096232;28;20445;-64
2022/06/03 00:24:01;;;;;;;6.00;5.70;;;;;;;;;;5095840;28;20424;-65
2022/06/03 00:26:27;;;;;;;7.03;6.30;;;;;;;;;;5095980;28;20409;-64
2022/06/03 00:29:04;;;;;;;5.67;5.17;;;;;;;;;;5095767;28;20476;-65
2022/06/03 00:31:49;;;;;;;5.80;5.50;;;;;;;;;;5095809;28;20465;-65
2022/06/03 00:34:34;;;;;;;6.20;5.80;;;;;;;;;;5095870;28;20916;-65
2022/06/03 00:37:00;;;;;;;6.10;5.80;;;;;;;;;;5094530;28;20432;-65
2022/06/03 00:39:50;;;;;;;6.00;5.80;;;;;;;;;;5094389;28;20421;-65
2022/06/03 00:42:35;;;;;;;5.97;5.67;;;;;;;;;;5095729;28;20432;-65
2022/06/03 00:45:19;;;;;;;6.73;6.20;;;;;;;;;;5095648;28;20961;-65
2022/06/03 00:47:48;;;;;;;5.53;5.33;;;;;;;;;;5094291;28;20412;-63
2022/06/03 00:50:33;;;;;;;5.83;5.53;;;;;;;;;;5095431;28;20468;-64
2022/06/03 00:53:05;;;;;;;5.50;5.20;;;;;;;;;;5094190;28;20432;-65
2022/06/03 00:55:55;;;;;;;5.50;5.20;;;;;;;;;;5095416;28;20460;-65
2022/06/03 00:58:27;;;;;;;5.73;5.33;;;;;;;;;;5095385;28;20404;-64
2022/06/03 01:01:00;;;;;;;6.73;6.23;;;;;;;;;;5095340;28;20416;-64
2022/06/03 01:03:44;;;;;;;6.50;6.00;;;;;;;;;;5095200;28;20760;-64
2022/06/03 01:06:23;;;;;;;6.37;5.90;;;;;;;;;;5095226;28;20415;-65
2022/06/03 01:09:07;;;;;;;7.50;6.57;;;;;;;;;;5095170;28;20763;-64
2022/06/03 01:11:44;;;;;;;6.40;6.10;;;;;;;;;;5093839;28;20894;-65
2022/06/03 01:14:19;;;;;;;6.47;6.17;;;;;;;;;;5095187;28;20491;-65
2022/06/03 01:17:01;;;;;;;9.00;6.20;;;;;;;;;;5094988;28;20409;-65
2022/06/03 01:19:39;;;;;;;10.03;6.47;;;;;;;;;;5095060;28;20972;-64
2022/06/03 01:22:24;;;;;;;11.73;6.93;;;;;;;;;;5094938;28;20403;-64
2022/06/03 01:25:10;;;;;;;6.90;6.30;;;;;;;;;;5094818;28;20438;-64
2022/06/03 01:27:45;;;;;;;6.33;5.93;;;;;;;;;;5073558;28;20422;-65
2022/06/03 01:30:46;;;;;;;8.30;6.33;;;;;;;;;;5094464;28;20483;-64
2022/06/03 01:33:12;;;;;;;6.57;6.17;;;;;;;;;;5032428;28;20434;-65
2022/06/03 01:36:02;;;;;;;6.80;6.30;;;;;;;;;;5082315;28;20477;-64
2022/06/03 01:38:34;;;;;;;7.00;6.60;;;;;;;;;;5094602;28;20407;-64
2022/06/03 01:41:08;;;;;;;6.57;6.10;;;;;;;;;;5094529;28;20906;-64
2022/06/03 01:43:41;;;;;;;8.60;6.83;;;;;;;;;;5094452;28;20956;-64
2022/06/03 01:46:16;;;;;;;7.03;6.53;;;;;;;;;;5094475;28;20495;-65
2022/06/03 01:48:58;;;;;;;6.83;6.43;;;;;;;;;;5094323;28;20898;-64
2022/06/03 01:51:42;;;;;;;6.47;6.27;;;;;;;;;;5093011;28;20485;-64
2022/06/03 01:54:27;;;;;;;8.47;5.90;;;;;;;;;;5094299;28;20405;-65
2022/06/03 01:56:53;;;;;;;6.73;6.33;;;;;;;;;;5094291;28;20396;-65
2022/06/03 01:59:33;;;;;;;7.50;5.90;;;;;;;;;;5094261;28;20409;-65
2022/06/03 02:02:11;;;;;;;7.63;7.20;;;;;;;;;;5094176;28;20433;-65
2022/06/03 02:04:40;;;;;;;7.23;6.73;;;;;;;;;;5094141;28;20909;-65
2022/06/03 02:07:12;;;;;;;7.70;7.17;;;;;;;;;;5092806;28;20506;-64
2022/06/03 02:09:57;;;;;;;8.03;7.27;;;;;;;;;;5092653;28;20420;-64
2022/06/03 02:12:26;;;;;;;7.47;7.10;;;;;;;;;;5094016;28;20930;-64
2022/06/03 02:14:53;;;;;;;8.03;7.50;;;;;;;;;;5093866;28;20420;-64
2022/06/03 02:17:48;;;;;;;8.50;8.00;;;;;;;;;;5093910;28;20505;-64
2022/06/03 02:20:34;;;;;;;8.17;7.50;;;;;;;;;;5085264;28;20431;-64
2022/06/03 02:23:03;;;;;;;8.20;7.60;;;;;;;;;;5093795;28;20441;-64
2022/06/03 02:25:29;;;;;;;9.30;8.20;;;;;;;;;;5092415;28;20931;-65
2022/06/03 02:28:13;;;;;;;8.30;7.80;;;;;;;;;;5092297;28;20427;-65
2022/06/03 02:31:00;;;;;;;9.40;7.47;;;;;;;;;;5093643;28;20868;-65
2022/06/03 02:33:44;;;;;;;8.67;8.17;;;;;;;;;;5081836;28;20423;-64
2022/06/03 02:36:29;;;;;;;8.80;8.20;;;;;;;;;;5093640;28;20495;-64
2022/06/03 02:39:01;;;;;;;8.23;7.40;;;;;;;;;;5092186;28;20422;-64
2022/06/03 02:41:46;;;;;;;8.20;7.50;;;;;;;;;;5093490;28;20447;-64
2022/06/03 02:44:30;;;;;;;11.63;6.77;;;;;;;;;;5093549;28;20420;-64
2022/06/03 02:47:05;;;;;;;13.80;7.67;;;;;;;;;;5092199;28;20469;-65
2022/06/03 02:49:50;;;;;;;18.13;8.03;;;;;;;;;;5092064;28;20530;-65
2022/06/03 02:52:16;;;;;;;13.50;7.93;;;;;;;;;;5093761;28;20404;-65
2022/06/03 02:55:01;;;;;;;7.73;6.97;;;;;;;;;;5093464;28;20929;-64
2022/06/03 02:57:29;;;;;;;9.77;6.80;;;;;;;;;;5093430;28;20886;-65
2022/06/03 02:59:58;;;;;;;16.67;8.50;;;;;;;;;;5093625;28;20427;-64
2022/06/03 03:02:43;;;;;;;15.43;8.50;;;;;;;;;;5093357;28;20408;-65
2022/06/03 03:05:27;;;;;;;9.13;8.23;;;;;;;;;;5093433;28;20502;-65
2022/06/03 03:07:59;;;;;;;10.80;8.43;;;;;;;;;;5093280;28;20407;-64
2022/06/03 03:10:28;;;;;;;11.77;8.60;;;;;;;;;;5093224;28;20478;-65
2022/06/03 03:12:54;;;;;;;10.30;9.60;;;;;;;;;;5092072;28;20426;-64
2022/06/03 03:15:20;;;;;;;10.07;9.17;;;;;;;;;;5093325;28;20777;-66
2022/06/03 03:18:02;;;;;;;9.30;8.70;;;;;;;;;;5093302;28;20399;-65
2022/06/03 03:20:46;;;;;;;10.47;9.40;;;;;;;;;;5093232;28;20401;-64
2022/06/03 03:23:24;;;;;;;10.20;9.50;;;;;;;;;;5093250;28;20497;-65
2022/06/03 03:25:59;;;;;;;13.43;8.27;;;;;;;;;;5093187;28;20412;-65
2022/06/03 03:28:39;;;;;;;8.50;7.90;;;;;;;;;;5093009;28;20523;-65
2022/06/03 03:31:14;;;;;;;9.93;7.80;;;;;;;;;;5093073;28;20475;-64
2022/06/03 03:34:01;;;;;;;13.30;7.67;;;;;;;;;;5091927;28;20421;-65
2022/06/03 03:36:46;;;;;;;12.10;8.40;;;;;;;;;;5093113;28;20411;-65
2022/06/03 03:39:24;;;;;;;7.90;7.27;;;;;;;;;;5093082;28;20459;-64
2022/06/03 03:42:02;;;;;;;9.77;6.90;;;;;;;;;;5093160;28;20496;-65
2022/06/03 03:44:40;;;;;;;8.90;8.10;;;;;;;;;;5093007;28;20414;-65
2022/06/03 03:47:16;;;;;;;25.13;8.13;;;;;;;;;;5093001;28;20411;-65
2022/06/03 03:49:42;;;;;;;14.40;8.07;;;;;;;;;;5094456;28;20411;-65
2022/06/03 03:52:08;;;;;;;20.90;9.80;;;;;;;;;;5096642;28;20892;-65
2022/06/03 03:54:52;;;;;;;12.50;8.20;;;;;;;;;;5096486;28;20426;-65
2022/06/03 03:57:47;;;;;;;7.57;6.90;;;;;;;;;;5096604;28;20408;-65
2022/06/03 04:00:13;;;;;;;10.27;8.10;;;;;;;;;;5095128;28;20435;-65
2022/06/03 04:02:58;;;;;;;14.77;7.90;;;;;;;;;;5095129;28;20425;-65
2022/06/03 04:05:39;;;;;;;14.00;8.30;;;;;;;;;;5096410;28;20408;-65
2022/06/03 04:08:23;;;;;;;8.83;7.43;;;;;;;;;;5096422;28;20411;-65
2022/06/03 04:10:58;;;;;;;7.13;6.67;;;;;;;;;;5096188;28;20470;-65
2022/06/03 04:13:30;;;;;;;12.30;8.50;;;;;;;;;;5096204;28;20399;-65
2022/06/03 04:16:02;;;;;;;18.27;7.87;;;;;;;;;;5094885;28;20431;-66
2022/06/03 04:18:47;;;;;;;11.77;8.03;;;;;;;;;;5096176;28;20414;-65
2022/06/03 04:21:22;;;;;;;10.03;7.83;;;;;;;;;;5096226;28;20395;-64
2022/06/03 04:24:07;;;;;;;15.93;7.87;;;;;;;;;;5096074;28;20427;-65
2022/06/03 04:26:41;;;;;;;7.60;7.00;;;;;;;;;;5095917;28;20408;-65
2022/06/03 04:29:34;;;;;;;13.23;9.50;;;;;;;;;;5095746;28;20461;-65
2022/06/03 04:32:18;;;;;;;18.97;12.57;;;;;;;;;;5095950;28;20420;-65
2022/06/03 04:35:04;;;;;;;8.10;7.37;;;;;;;;;;5095847;28;20407;-65
2022/06/03 04:37:33;;;;;;;9.00;7.80;;;;;;;;;;5095583;28;20404;-65
2022/06/03 04:40:18;;;;;;;7.13;6.57;;;;;;;;;;5095675;28;20412;-65
2022/06/03 04:43:10;;;;;;;15.43;7.80;;;;;;;;;;5095738;28;20409;-65
2022/06/03 04:45:45;;;;;;;8.87;8.20;;;;;;;;;;5079621;28;20419;-65
2022/06/03 04:48:30;;;;;;;9.57;7.40;;;;;;;;;;5095591;28;20790;-66
2022/06/03 04:51:14;;;;;;;8.67;7.07;;;;;;;;;;5095490;28;20473;-65
2022/06/03 04:53:40;;;;;;;8.60;7.90;;;;;;;;;;5095447;28;20388;-65
2022/06/03 04:56:25;;;;;;;9.03;8.00;;;;;;;;;;5095660;28;20815;-65
2022/06/03 04:59:07;;;;;;;9.57;8.17;;;;;;;;;;5095345;28;20393;-65
2022/06/03 05:01:52;;;;;;;9.50;7.43;;;;;;;;;;5094907;28;20407;-65
2022/06/03 05:04:24;;;;;;;11.40;7.80;;;;;;;;;;5095256;28;20403;-66
2022/06/03 05:06:50;;;;;;;8.40;7.90;;;;;;;;;;5093863;28;20413;-66
2022/06/03 05:09:35;;;;;;;10.83;9.83;;;;;;;;;;5095183;28;20510;-65
2022/06/03 05:12:03;;;;;;;13.20;9.27;;;;;;;;;;5095057;28;20424;-65
2022/06/03 05:14:39;;;;;;;9.07;8.47;;;;;;;;;;5095322;28;20466;-65
2022/06/03 05:17:29;;;;;;;9.73;9.07;;;;;;;;;;5095090;28;20400;-66
2022/06/03 05:20:08;;;;;;;11.80;8.00;;;;;;;;;;5094867;28;20407;-65
2022/06/03 05:22:49;;;;;;;10.03;8.23;;;;;;;;;;5095003;28;20420;-66
2022/06/03 05:25:41;;;;;;;8.20;7.67;;;;;;;;;;5094770;28;20437;-65
2022/06/03 05:28:23;;;;;;;13.13;7.33;;;;;;;;;;5078696;28;20435;-66
2022/06/03 05:31:08;;;;;;;8.13;7.57;;;;;;;;;;5093295;28;20471;-66
2022/06/03 05:33:37;;;;;;;8.30;7.70;;;;;;;;;;5093679;28;20425;-66
2022/06/03 05:36:04;;;;;;;7.70;7.07;;;;;;;;;;5094722;28;20483;-65
2022/06/03 05:38:40;;;;;;;8.27;7.63;;;;;;;;;;5094794;28;20410;-66
2022/06/03 05:44:33;;;;;;;8.43;7.80;;;;;;;;;;5094546;28;20385;-66
2022/06/03 05:47:06;;;;;;;7.80;7.33;;;;;;;;;;5074799;28;20435;-65
2022/06/03 05:49:34;;;;;;;11.23;7.90;;;;;;;;;;5094385;28;20418;-66
2022/06/03 05:52:00;;;;;;;8.27;7.57;;;;;;;;;;5094419;28;20418;-67
2022/06/03 05:54:34;;;;;;;8.10;7.63;;;;;;;;;;5094147;28;20403;-65
2022/06/03 05:57:18;;;;;;;7.40;6.90;;;;;;;;;;5094259;28;20411;-67
2022/06/03 06:00:00;;;;;;;8.53;7.60;;;;;;;;;;5094178;28;20459;-66
2022/06/03 06:02:35;;;;;;;7.67;7.27;;;;;;;;;;5092810;28;20792;-66
2022/06/03 06:05:04;;;;;;;6.90;6.70;;;;;;;;;;5092729;28;20438;-67
2022/06/03 06:07:33;;;;;;;6.87;6.43;;;;;;;;;;5094099;28;20429;-66
2022/06/03 06:10:04;;;;;;;7.87;7.10;;;;;;;;;;5093905;28;20816;-66
2022/06/03 06:12:39;;;;;;;7.30;6.90;;;;;;;;;;5093337;28;20439;-65
2022/06/03 06:15:24;;;;;;;7.73;6.83;;;;;;;;;;5093872;28;20447;-66
2022/06/03 06:17:56;;;;;;;7.23;6.67;;;;;;;;;;5092628;28;20426;-66
2022/06/03 06:20:44;;;;;;;8.30;7.80;;;;;;;;;;5092611;28;20417;-66
2022/06/03 06:23:16;;;;;;;8.53;7.87;;;;;;;;;;5092490;28;20421;-65
2022/06/03 06:26:02;;;;;;;7.83;7.13;;;;;;;;;;5093793;28;20413;-66
2022/06/03 06:28:29;;;;;;;6.43;6.03;;;;;;;;;;5074012;28;20471;-62
2022/06/03 06:30:58;;;;;;;7.57;5.57;;;;;;;;;;5093671;28;20470;-64
2022/06/03 06:33:28;;;;;;;7.30;6.60;;;;;;;;;;5093889;28;20544;-63
2022/06/03 06:35:56;;;;;;;6.90;6.33;;;;;;;;;;5093701;28;20408;-65
2022/06/03 06:38:41;;;;;;;7.33;6.93;;;;;;;;;;5093598;28;20402;-64
2022/06/03 06:41:17;;;;;;;5.93;5.73;;;;;;;;;;5092184;28;20870;-65
2022/06/03 06:43:47;;;;;;;6.70;6.20;;;;;;;;;;5093574;28;20414;-63
2022/06/03 06:46:13;;;;;;;6.80;6.40;;;;;;;;;;5093659;28;20408;-65
2022/06/03 06:48:48;;;;;;;6.10;5.80;;;;;;;;;;5093513;28;20410;-64
2022/06/03 06:51:14;;;;;;;6.20;5.90;;;;;;;;;;5093457;28;20465;-65
2022/06/03 06:53:40;;;;;;;8.10;6.57;;;;;;;;;;5092226;28;20513;-65
2022/06/03 06:56:06;;;;;;;13.73;6.87;;;;;;;;;;5081778;28;20856;-64
2022/06/03 06:58:44;;;;;;;6.20;5.87;;;;;;;;;;5067600;28;20511;-64
2022/06/03 07:01:12;;;;;;;6.57;6.07;;;;;;;;;;5070459;28;20845;-63
2022/06/03 07:03:44;;;;;;;6.47;6.00;;;;;;;;;;5068499;28;20456;-63
2022/06/03 07:06:16;;;;;;;6.73;6.00;;;;;;;;;;5070583;28;20920;-64
2022/06/03 07:08:42;;;;;;;6.20;5.90;;;;;;;;;;5071902;28;20543;-64
2022/06/03 07:11:12;;;;;;;6.73;6.10;;;;;;;;;;5072984;28;20501;-65
2022/06/03 07:13:49;;;;;;;5.73;5.47;;;;;;;;;;5073151;28;20475;-65
2022/06/03 07:22:29;;;;;;;6.90;6.40;;;;;;;;;;5030931;28;20419;-65
2022/06/03 07:25:04;;;;;;;7.00;6.27;;;;;;;;;;5034556;28;20431;-64
2022/06/03 07:27:32;;;;;;;6.17;5.87;;;;;;;;;;5059693;28;20429;-65
2022/06/03 07:30:11;;;;;;;17.27;6.87;;;;;;;;;;5076572;28;21084;-65
2022/06/03 07:32:45;;;;;;;6.00;5.80;;;;;;;;;;5076754;28;20402;-65
2022/06/03 07:35:22;;;;;;;5.63;5.43;;;;;;;;;;5075368;28;20410;-64
2022/06/03 07:37:55;;;;;;;5.43;5.23;;;;;;;;;;5076722;28;20407;-64
2022/06/03 07:40:24;;;;;;;6.67;6.17;;;;;;;;;;5075287;28;20422;-65
2022/06/03 07:43:16;;;;;;;5.73;5.43;;;;;;;;;;5076584;28;20401;-65
2022/06/03 07:45:42;;;;;;;5.33;5.07;;;;;;;;;;5074528;28;20432;-65
2022/06/03 07:48:14;;;;;;;8.20;5.70;;;;;;;;;;5076540;28;20398;-65
2022/06/03 07:50:49;;;;;;;5.63;5.23;;;;;;;;;;5076319;28;20463;-64
2022/06/03 07:53:18;;;;;;;5.97;5.40;;;;;;;;;;5076300;28;20425;-64
2022/06/03 07:55:44;;;;;;;6.23;5.70;;;;;;;;;;5076350;28;20414;-66
2022/06/03 07:58:15;;;;;;;6.63;6.00;;;;;;;;;;5076309;28;20437;-64
2022/06/03 08:00:44;;;;;;;7.57;6.13;;;;;;;;;;5076089;28;20410;-65
2022/06/03 08:03:14;;;;;;;6.03;5.60;;;;;;;;;;5076182;28;20410;-65
2022/06/03 08:05:42;;;;;;;8.63;5.70;;;;;;;;;;5076062;28;20441;-65
2022/06/03 08:10:57;;;;;;;5.87;5.47;;;;;;;;;;5076091;28;20880;-63
2022/06/03 08:13:23;;;;;;;6.00;5.80;;;;;;;;;;5076085;28;20464;-64
2022/06/03 08:16:15;;;;;;;4.97;4.73;;;;;;;;;;5075955;28;20413;-64
2022/06/03 08:18:43;;;;;;;6.20;5.80;;;;;;;;;;5073842;28;20522;-62
2022/06/03 08:21:46;;;;;;;5.03;4.83;;;;;;;;;;5075886;28;20394;-63
2022/06/03 08:24:16;;;;;;;7.50;4.87;;;;;;;;;;5043802;28;21027;-65
2022/06/03 08:26:44;;;;;;;4.70;4.30;;;;;;;;;;5075669;28;20408;-64
2022/06/03 08:29:18;;;;;;;4.87;4.77;;;;;;;;;;5075657;28;20525;-64
2022/06/03 08:31:45;;;;;;;4.53;4.33;;;;;;;;;;5075508;28;21021;-63
2022/06/03 08:34:14;;;;;;;4.37;4.07;;;;;;;;;;5075674;28;20405;-65
2022/06/03 08:36:41;;;;;;;6.10;4.37;;;;;;;;;;5074952;28;20437;-64
2022/06/03 08:39:14;;;;;;;4.87;4.67;;;;;;;;;;5075431;28;20406;-65
2022/06/03 08:41:53;;;;;;;4.93;4.00;;;;;;;;;;5075459;28;20417;-65
2022/06/03 08:44:37;;;;;;;13.90;5.00;;;;;;;;;;5075399;28;20406;-65
2022/06/03 08:47:07;;;;;;;7.00;4.50;;;;;;;;;;5075390;28;20410;-65
2022/06/03 08:49:43;;;;;;;5.10;4.90;;;;;;;;;;5074093;28;20423;-65
2022/06/03 08:52:11;;;;;;;13.80;5.30;;;;;;;;;;5075346;28;20776;-65
2022/06/03 08:54:40;;;;;;;5.77;4.50;;;;;;;;;;5075295;28;20898;-64
2022/06/03 08:57:13;;;;;;;4.47;4.27;;;;;;;;;;5075221;28;20416;-65
2022/06/03 08:59:46;;;;;;;6.33;3.87;;;;;;;;;;5075281;28;20452;-65
2022/06/03 09:02:15;;;;;;;4.20;4.00;;;;;;;;;;5073923;28;20422;-64
2022/06/03 09:04:47;;;;;;;4.07;3.97;;;;;;;;;;5075116;28;20409;-65
2022/06/03 09:07:19;;;;;;;3.47;3.43;;;;;;;;;;5075140;28;20918;-65
2022/06/03 09:09:45;;;;;;;4.17;3.87;;;;;;;;;;5074636;28;20421;-65
2022/06/03 09:12:14;;;;;;;9.40;4.90;;;;;;;;;;5074850;28;20464;-66
2022/06/03 09:14:42;;;;;;;7.13;4.80;;;;;;;;;;5074295;28;20492;-65
2022/06/03 09:17:24;;;;;;;6.53;4.40;;;;;;;;;;5074805;28;20405;-67
2022/06/03 09:19:52;;;;;;;6.40;5.17;;;;;;;;;;5074765;28;20413;-66
2022/06/03 09:22:21;;;;;;;5.97;4.30;;;;;;;;;;5074774;28;20445;-67
2022/06/03 09:24:47;;;;;;;5.53;5.13;;;;;;;;;;5074659;28;20410;-66
2022/06/03 09:27:16;;;;;;;6.70;6.07;;;;;;;;;;5074675;28;20407;-66
2022/06/03 09:29:51;;;;;;;7.33;6.47;;;;;;;;;;5074443;28;20509;-67
2022/06/03 09:32:17;;;;;;;7.40;6.20;;;;;;;;;;5073553;28;20809;-67
2022/06/03 09:34:46;;;;;;;8.10;7.40;;;;;;;;;;5074488;28;20410;-67
2022/06/03 09:37:14;;;;;;;8.80;7.50;;;;;;;;;;5074673;28;20423;-66
2022/06/03 09:39:41;;;;;;;8.30;6.43;;;;;;;;;;5074467;28;20405;-66
2022/06/03 09:42:09;;;;;;;7.27;6.53;;;;;;;;;;5074391;28;20425;-67
2022/06/03 09:44:35;;;;;;;7.73;7.17;;;;;;;;;;5074316;28;20399;-66
2022/06/03 09:47:05;;;;;;;8.07;6.87;;;;;;;;;;5073295;28;20404;-66
2022/06/03 09:49:32;;;;;;;9.60;6.77;;;;;;;;;;5074210;28;20405;-67
2022/06/03 09:52:02;;;;;;;9.07;8.13;;;;;;;;;;5074016;28;20476;-66
2022/06/03 09:54:28;;;;;;;8.00;7.20;;;;;;;;;;5074272;28;20403;-64
2022/06/03 09:56:56;;;;;;;7.90;7.30;;;;;;;;;;5073956;28;20408;-63
2022/06/03 09:59:23;;;;;;;11.70;7.23;;;;;;;;;;5073978;28;20400;-65
2022/06/03 10:01:49;;;;;;;10.40;7.90;;;;;;;;;;5073933;28;20502;-67
2022/06/03 10:04:17;;;;;;;8.10;7.70;;;;;;;;;;5073912;28;20407;-65
2022/06/03 10:06:43;;;;;;;7.23;6.60;;;;;;;;;;5073820;28;20447;-65
2022/06/03 10:14:43;;;;;;;13.13;6.63;;;;;;;;;;5073822;28;20450;-63
2022/06/03 10:17:10;;;;;;;8.13;7.30;;;;;;;;;;5073690;28;20413;-63
2022/06/03 10:19:36;;;;;;;6.80;6.30;;;;;;;;;;5073707;28;20397;-63
2022/06/03 10:22:09;;;;;;;9.40;6.37;;;;;;;;;;5072230;28;20474;-63
2022/06/03 10:24:35;;;;;;;6.90;6.30;;;;;;;;;;5073610;28;20413;-64
2022/06/03 10:27:01;;;;;;;7.73;7.07;;;;;;;;;;5073808;28;20405;-64
2022/06/03 10:29:29;;;;;;;6.90;6.10;;;;;;;;;;5072182;28;20883;-63
2022/06/03 10:31:59;;;;;;;7.37;6.83;;;;;;;;;;5072180;28;20477;-64
2022/06/03 10:34:27;;;;;;;13.23;7.00;;;;;;;;;;5073536;28;20397;-65
2022/06/03 10:36:55;;;;;;;6.57;6.27;;;;;;;;;;5073464;28;20489;-64
2022/06/03 10:39:23;;;;;;;10.70;6.30;;;;;;;;;;5073414;28;20403;-64
2022/06/03 10:41:51;;;;;;;6.90;6.20;;;;;;;;;;5072204;28;20405;-64
2022/06/03 10:44:23;;;;;;;10.50;6.93;;;;;;;;;;5073349;28;20417;-63
2022/06/03 10:46:59;;;;;;;6.67;6.17;;;;;;;;;;5073404;28;20403;-63
2022/06/03 10:49:27;;;;;;;7.23;6.60;;;;;;;;;;5073384;28;20435;-63
2022/06/03 11:02:56;;;;;;;6.50;6.00;;;;;;;;;;5077432;28;20479;-66
2022/06/03 11:05:25;;;;;;;13.90;6.37;;;;;;;;;;5077412;28;20500;-64
2022/06/03 11:08:02;;;;;;;8.30;6.90;;;;;;;;;;5077379;28;20409;-63
2022/06/03 11:10:30;;;;;;;13.40;6.90;;;;;;;;;;5077158;28;20467;-64
2022/06/03 11:13:00;;;;;;;7.37;6.27;;;;;;;;;;5077182;28;20420;-63
2022/06/03 11:15:33;;;;;;;7.97;6.77;;;;;;;;;;5075887;28;20850;-63
2022/06/03 11:18:00;;;;;;;7.67;6.90;;;;;;;;;;5077299;28;20467;-63
2022/06/03 11:20:34;;;;;;;11.30;6.40;;;;;;;;;;5077096;28;20404;-64
2022/06/03 11:23:03;;;;;;;7.07;6.77;;;;;;;;;;5076497;28;20480;-63
2022/06/03 11:25:30;;;;;;;7.43;6.47;;;;;;;;;;5076464;28;20416;-63
2022/06/03 11:27:56;;;;;;;9.77;7.00;;;;;;;;;;5075900;28;20429;-64
2022/06/03 11:30:31;;;;;;;7.40;6.70;;;;;;;;;;5075943;28;20487;-64
2022/06/03 11:33:00;;;;;;;6.87;6.27;;;;;;;;;;5076782;28;20482;-64
2022/06/03 11:35:38;;;;;;;7.43;6.80;;;;;;;;;;5075424;28;20407;-64
2022/06/03 11:38:05;;;;;;;7.97;6.03;;;;;;;;;;5076815;28;20534;-64
2022/06/03 11:40:34;;;;;;;6.17;5.60;;;;;;;;;;5076476;28;20427;-65
2022/06/03 11:43:04;;;;;;;6.63;6.10;;;;;;;;;;5076640;28;20400;-64
2022/06/03 11:45:38;;;;;;;8.97;6.43;;;;;;;;;;5076276;28;20462;-67
2022/06/03 11:48:08;;;;;;;7.30;6.70;;;;;;;;;;5076247;28;20397;-66
2022/06/03 11:50:35;;;;;;;7.27;6.50;;;;;;;;;;5076422;28;20492;-64
2022/06/03 11:53:02;;;;;;;7.47;7.07;;;;;;;;;;5076435;28;20440;-69
2022/06/03 11:55:29;;;;;;;8.97;6.37;;;;;;;;;;5076285;28;20440;-65
2022/06/03 11:57:59;;;;;;;6.90;6.30;;;;;;;;;;5076367;28;20424;-68
2022/06/03 12:00:27;;;;;;;6.87;6.30;;;;;;;;;;5076329;28;20419;-66
2022/06/03 12:02:59;;;;;;;7.13;6.57;;;;;;;;;;5076211;28;20404;-67
2022/06/03 12:05:30;;;;;;;8.30;7.03;;;;;;;;;;5076239;28;20759;-65
2022/06/03 12:08:00;;;;;;;6.13;5.73;;;;;;;;;;5076618;28;20392;-68
2022/06/03 12:10:26;;;;;;;7.03;6.30;;;;;;;;;;5074864;28;20504;-68
2022/06/03 12:13:15;;;;;;;10.43;6.30;;;;;;;;;;5076296;28;20411;-67
2022/06/03 12:15:56;;;;;;;6.80;6.10;;;;;;;;;;5074757;28;20413;-63
2022/06/03 12:18:32;;;;;;;6.10;5.70;;;;;;;;;;5075969;28;20489;-68
2022/06/03 12:20:59;;;;;;;6.17;5.77;;;;;;;;;;5074591;28;20479;-67
2022/06/03 12:23:25;;;;;;;7.00;5.93;;;;;;;;;;5075957;28;20419;-67
2022/06/03 12:25:54;;;;;;;6.77;6.20;;;;;;;;;;5075745;28;20482;-66
2022/06/03 12:28:24;;;;;;;10.63;6.17;;;;;;;;;;5075825;28;20776;-68
2022/06/03 12:30:51;;;;;;;6.70;6.20;;;;;;;;;;5075713;28;20501;-66
2022/06/03 12:33:26;;;;;;;8.30;7.40;;;;;;;;;;5075845;28;20407;-67
2022/06/03 12:35:54;;;;;;;8.93;7.90;;;;;;;;;;5075621;28;20402;-64
2022/06/03 12:38:20;;;;;;;7.70;7.30;;;;;;;;;;5075643;28;20485;-65
2022/06/03 12:40:50;;;;;;;7.80;6.80;;;;;;;;;;5075529;28;20575;-65
2022/06/03 12:43:22;;;;;;;7.43;6.93;;;;;;;;;;5075548;28;20402;-65
2022/06/03 12:46:10;;;;;;;7.73;7.30;;;;;;;;;;5075482;28;20461;-65
2022/06/03 12:48:51;;;;;;;6.30;5.83;;;;;;;;;;5075634;28;20432;-65
2022/06/03 12:51:20;;;;;;;6.90;6.30;;;;;;;;;;5075270;28;20461;-65
2022/06/03 12:53:48;;;;;;;11.00;7.33;;;;;;;;;;5075342;28;20399;-66
2022/06/03 12:56:33;;;;;;;6.90;6.57;;;;;;;;;;5075212;28;20431;-66
2022/06/03 12:59:17;;;;;;;7.97;7.40;;;;;;;;;;5075218;28;20438;-65
2022/06/03 13:01:46;;;;;;;7.33;6.70;;;;;;;;;;5075104;28;21053;-65
2022/06/03 13:04:26;;;;;;;6.93;6.43;;;;;;;;;;5075370;28;20509;-65
2022/06/03 13:07:10;;;;;;;7.00;6.40;;;;;;;;;;5074976;28;20431;-66
2022/06/03 13:09:48;;;;;;;5.87;5.50;;;;;;;;;;5075146;28;20814;-66
2022/06/03 13:12:34;;;;;;;6.50;5.90;;;;;;;;;;5074851;28;20497;-66
2022/06/03 13:15:19;;;;;;;5.83;5.33;;;;;;;;;;5063180;28;20520;-66
2022/06/03 13:20:35;;;;;;;5.37;5.17;;;;;;;;;;5074661;28;20773;-66
2022/06/03 13:23:01;;;;;;;5.90;5.50;;;;;;;;;;5073194;28;20782;-65
2022/06/03 13:25:32;;;;;;;6.03;5.40;;;;;;;;;;5073376;28;20525;-65
2022/06/03 13:28:05;;;;;;;4.80;4.60;;;;;;;;;;5074811;28;20495;-66
2022/06/03 13:30:38;;;;;;;4.80;4.60;;;;;;;;;;5074386;28;20476;-62
2022/06/03 13:33:21;;;;;;;5.00;4.70;;;;;;;;;;5073269;28;20432;-62
2022/06/03 13:36:07;;;;;;;7.03;5.27;;;;;;;;;;5074468;28;20420;-63
2022/06/03 13:38:44;;;;;;;5.67;5.37;;;;;;;;;;5074494;28;20445;-64
2022/06/03 13:44:11;;;;;;;5.67;5.27;;;;;;;;;;5074536;28;20424;-64
2022/06/03 13:46:38;;;;;;;4.90;4.70;;;;;;;;;;5074156;28;20467;-64
2022/06/03 13:49:36;;;;;;;4.90;4.50;;;;;;;;;;5074164;28;20889;-65
2022/06/03 13:52:02;;;;;;;5.27;4.97;;;;;;;;;;5051374;28;20484;-64
2022/06/03 13:54:54;;;;;;;5.60;5.10;;;;;;;;;;5074390;28;20426;-65
2022/06/03 13:57:35;;;;;;;7.73;5.17;;;;;;;;;;5071118;28;20464;-64
2022/06/03 14:00:13;;;;;;;4.23;4.10;;;;;;;;;;5074116;28;20748;-64
2022/06/03 14:02:40;;;;;;;4.97;4.47;;;;;;;;;;5074139;28;20409;-64
2022/06/03 14:05:13;;;;;;;4.80;4.53;;;;;;;;;;5073882;28;20407;-64
2022/06/03 14:07:41;;;;;;;6.70;5.07;;;;;;;;;;5073703;28;20399;-63
2022/06/03 14:10:15;;;;;;;4.33;4.10;;;;;;;;;;5073766;28;20421;-63
2022/06/03 14:12:47;;;;;;;4.70;4.50;;;;;;;;;;5073677;28;20496;-64
2022/06/03 14:15:42;;;;;;;4.70;4.30;;;;;;;;;;5073620;28;20425;-64
2022/06/03 14:18:08;;;;;;;4.03;3.83;;;;;;;;;;5064756;28;20437;-64
2022/06/03 14:20:52;;;;;;;5.30;4.20;;;;;;;;;;5072703;28;20444;-64
2022/06/03 14:23:30;;;;;;;4.10;3.90;;;;;;;;;;5072404;28;20912;-62
2022/06/03 14:26:01;;;;;;;4.03;3.90;;;;;;;;;;5073601;28;20409;-62
2022/06/03 14:28:28;;;;;;;5.97;3.70;;;;;;;;;;5073342;28;20967;-62
2022/06/03 14:30:57;;;;;;;3.77;3.67;;;;;;;;;;5072190;28;20466;-65
2022/06/03 14:33:25;;;;;;;4.07;3.80;;;;;;;;;;5072892;28;20406;-63
2022/06/03 14:35:55;;;;;;;3.93;3.83;;;;;;;;;;5073565;28;20405;-63
2022/06/03 14:38:28;;;;;;;4.07;3.87;;;;;;;;;;5073477;28;20414;-64
2022/06/03 14:40:54;;;;;;;6.83;4.27;;;;;;;;;;5073475;28;20406;-63
2022/06/03 14:43:23;;;;;;;4.40;4.10;;;;;;;;;;5073276;28;20448;-63
2022/06/03 14:45:51;;;;;;;3.77;3.47;;;;;;;;;;5073439;28;20497;-64
2022/06/03 14:48:21;;;;;;;18.07;16.43;;;;;;;;;;5073393;28;20437;-64
2022/06/03 14:50:52;;;;;;;6.67;5.17;;;;;;;;;;5068455;28;20565;-63
2022/06/03 14:53:23;;;;;;;7.60;3.97;;;;;;;;;;5069827;28;20418;-64
2022/06/03 14:56:02;;;;;;;4.67;4.37;;;;;;;;;;5070605;28;20437;-63
2022/06/03 14:58:32;;;;;;;5.80;3.90;;;;;;;;;;5070610;28;20445;-63
2022/06/03 15:01:18;;;;;;;7.03;4.43;;;;;;;;;;5070689;28;20452;-64
2022/06/03 15:03:59;;;;;;;4.53;4.23;;;;;;;;;;5068684;28;20452;-64
2022/06/03 15:06:28;;;;;;;6.00;3.77;;;;;;;;;;5068689;28;20426;-66
2022/06/03 15:09:00;;;;;;;3.90;3.70;;;;;;;;;;5070352;28;20468;-63
2022/06/03 15:11:36;;;;;;;3.47;3.30;;;;;;;;;;5070366;28;20469;-63
2022/06/03 15:14:10;;;;;;;3.73;3.53;;;;;;;;;;5070599;28;20429;-64
2022/06/03 15:16:50;;;;;;;4.67;3.70;;;;;;;;;;5070403;28;20402;-63
2022/06/03 15:19:16;;;;;;;9.93;7.70;;;;;;;;;;5071055;28;20475;-63
2022/06/03 15:21:42;;;;;;;4.70;4.50;;;;;;;;;;5069350;28;20845;-63
2022/06/03 15:24:10;;;;;;;3.30;3.10;;;;;;;;;;5084171;28;20482;-65
2022/06/03 15:26:40;;;;;;;4.10;3.90;;;;;;;;;;5070189;28;20464;-63
2022/06/03 15:29:09;;;;;;;4.30;4.00;;;;;;;;;;5069882;28;20503;-63
2022/06/03 15:31:36;;;;;;;3.00;3.00;;;;;;;;;;5070227;28;20480;-65
2022/06/03 15:34:04;;;;;;;3.30;3.20;;;;;;;;;;5070430;28;20457;-63
2022/06/03 15:36:34;;;;;;;4.97;3.40;;;;;;;;;;5068942;28;20433;-64
2022/06/03 15:39:18;;;;;;;3.70;3.60;;;;;;;;;;5070433;28;20413;-63
2022/06/03 15:41:48;;;;;;;4.83;3.50;;;;;;;;;;5070034;28;20931;-63
2022/06/03 15:44:27;;;;;;;3.70;3.40;;;;;;;;;;5071259;28;20422;-63
2022/06/03 15:47:16;;;;;;;4.03;3.87;;;;;;;;;;5073972;28;20418;-63
2022/06/03 15:49:49;;;;;;;4.13;4.03;;;;;;;;;;5073454;28;20414;-65
2022/06/03 15:52:17;;;;;;;5.30;3.30;;;;;;;;;;5073904;28;20472;-62
2022/06/03 15:54:57;;;;;;;3.87;3.47;;;;;;;;;;5073714;28;20932;-65
2022/06/03 15:57:35;;;;;;;3.20;3.10;;;;;;;;;;5073731;28;20398;-66
2022/06/03 16:00:13;;;;;;;3.43;3.30;;;;;;;;;;5073668;28;20410;-63